createdAt,value
2018-07-21T00:02:12.535Z,9.10
2018-07-21T00:04:40.982Z,8.58
2018-07-21T00:07:09.470Z,9.08
2018-07-21T00:09:37.954Z,8.85
2018-07-21T00:12:06.432Z,8.58
2018-07-21T00:14:34.883Z,8.80
2018-07-21T00:17:03.382Z,8.93
2018-07-21T00:19:31.845Z,8.68
2018-07-21T00:22:00.367Z,8.00
2018-07-21T00:24:28.832Z,8.40
2018-07-21T00:26:57.328Z,8.15
2018-07-21T00:29:25.792Z,8.23
2018-07-21T00:31:54.298Z,8.78
2018-07-21T00:34:22.784Z,8.60
2018-07-21T00:36:51.247Z,9.53
2018-07-21T00:39:19.699Z,8.75
2018-07-21T00:41:48.151Z,8.68
2018-07-21T00:44:16.621Z,8.68
2018-07-21T00:46:45.110Z,9.33
2018-07-21T00:49:13.575Z,9.10
2018-07-21T00:51:42.090Z,9.23
2018-07-21T00:54:10.533Z,8.68
2018-07-21T00:56:39.008Z,8.18
2018-07-21T00:59:07.972Z,8.68
2018-07-21T01:01:36.454Z,8.65
2018-07-21T01:04:04.956Z,8.60
2018-07-21T01:06:33.535Z,9.10
2018-07-21T01:09:02.004Z,7.33
2018-07-21T01:11:30.510Z,8.68
2018-07-21T01:13:58.946Z,7.80
2018-07-21T01:16:27.411Z,8.40
2018-07-21T01:18:55.881Z,7.87
2018-07-21T01:21:24.366Z,7.50
2018-07-21T01:23:52.815Z,7.97
2018-07-21T01:26:21.296Z,6.95
2018-07-21T01:28:49.767Z,6.97
2018-07-21T01:31:18.245Z,7.10
2018-07-21T01:33:46.682Z,7.60
2018-07-21T01:36:15.150Z,7.70
2018-07-21T01:38:43.624Z,7.92
2018-07-21T01:41:12.131Z,7.33
2018-07-21T01:43:40.619Z,7.92
2018-07-21T01:46:09.128Z,7.55
2018-07-21T01:48:37.562Z,7.35
2018-07-21T01:51:06.175Z,7.40
2018-07-21T01:53:34.652Z,7.58
2018-07-21T01:56:03.127Z,7.35
2018-07-21T01:58:31.623Z,7.25
2018-07-21T02:01:00.100Z,7.60
2018-07-21T02:03:28.558Z,7.58
2018-07-21T02:05:57.015Z,7.75
2018-07-21T02:08:25.522Z,7.05
2018-07-21T02:10:53.978Z,7.58
2018-07-21T02:13:22.468Z,6.72
2018-07-21T02:15:50.976Z,7.30
2018-07-21T02:18:19.490Z,6.75
2018-07-21T02:20:48.058Z,6.83
2018-07-21T02:23:16.526Z,6.95
2018-07-21T02:25:44.986Z,7.28
2018-07-21T02:28:13.467Z,6.97
2018-07-21T02:30:41.959Z,6.42
2018-07-21T02:33:10.476Z,6.75
2018-07-21T02:35:38.936Z,7.30
2018-07-21T02:38:07.415Z,8.25
2018-07-21T02:40:35.895Z,7.75
2018-07-21T02:43:04.391Z,7.60
2018-07-21T02:45:32.836Z,6.90
2018-07-21T02:48:01.304Z,7.30
2018-07-21T02:50:29.916Z,7.30
2018-07-21T02:52:58.723Z,7.65
2018-07-21T02:55:27.184Z,8.13
2018-07-21T02:57:55.654Z,7.55
2018-07-21T03:00:24.107Z,6.95
2018-07-21T03:02:52.568Z,7.20
2018-07-21T03:05:20.999Z,6.45
2018-07-21T03:07:49.476Z,7.25
2018-07-21T03:10:18.007Z,6.33
2018-07-21T03:12:46.479Z,6.80
2018-07-21T03:15:14.983Z,6.83
2018-07-21T03:17:43.454Z,6.55
2018-07-21T03:20:11.900Z,7.20
2018-07-21T03:22:40.387Z,7.30
2018-07-21T03:25:08.932Z,6.67
2018-07-21T03:27:37.097Z,6.97
2018-07-21T03:30:05.608Z,6.40
2018-07-21T03:32:34.086Z,6.62
2018-07-21T03:35:02.544Z,6.40
2018-07-21T03:37:31.025Z,6.67
2018-07-21T03:39:59.503Z,7.65
2018-07-21T03:42:27.970Z,7.53
2018-07-21T03:44:56.439Z,6.67
2018-07-21T03:47:24.920Z,6.37
2018-07-21T03:49:53.406Z,6.17
2018-07-21T03:52:21.899Z,6.60
2018-07-21T03:54:50.370Z,6.50
2018-07-21T03:57:18.856Z,6.28
2018-07-21T03:59:47.336Z,6.85
2018-07-21T04:02:15.785Z,6.25
2018-07-21T04:04:44.299Z,6.30
2018-07-21T04:07:12.762Z,6.70
2018-07-21T04:09:41.237Z,6.50
2018-07-21T04:12:09.698Z,6.75
2018-07-21T04:14:38.170Z,6.83
2018-07-21T04:17:10.463Z,6.72
2018-07-21T04:19:38.983Z,6.53
2018-07-21T04:22:07.456Z,5.92
2018-07-21T04:24:35.910Z,6.35
2018-07-21T04:27:04.428Z,6.67
2018-07-21T04:29:32.903Z,5.92
2018-07-21T04:32:01.368Z,6.50
2018-07-21T04:34:29.872Z,6.17
2018-07-21T04:36:58.353Z,6.20
2018-07-21T04:39:26.833Z,5.75
2018-07-21T04:41:55.547Z,6.53
2018-07-21T04:44:24.002Z,6.55
2018-07-21T04:46:52.442Z,5.80
2018-07-21T04:49:20.916Z,6.10
2018-07-21T04:51:49.379Z,5.80
2018-07-21T04:54:17.895Z,6.05
2018-07-21T04:56:46.330Z,5.95
2018-07-21T04:59:14.786Z,6.25
2018-07-21T05:01:43.238Z,5.85
2018-07-21T05:04:11.760Z,5.33
2018-07-21T05:06:40.207Z,5.45
2018-07-21T05:09:11.720Z,6.03
2018-07-21T05:11:40.466Z,5.42
2018-07-21T05:14:09.390Z,6.12
2018-07-21T05:16:38.956Z,5.60
2018-07-21T05:19:07.986Z,6.35
2018-07-21T05:21:36.963Z,5.90
2018-07-21T05:24:06.173Z,5.67
2018-07-21T05:26:35.251Z,6.17
2018-07-21T05:29:03.747Z,6.70
2018-07-21T05:31:32.232Z,6.30
2018-07-21T05:34:00.707Z,5.85
2018-07-21T05:36:29.158Z,6.25
2018-07-21T05:38:57.653Z,5.95
2018-07-21T05:41:26.099Z,5.67
2018-07-21T05:43:54.563Z,5.95
2018-07-21T05:46:23.047Z,5.78
2018-07-21T05:48:51.572Z,6.45
2018-07-21T05:51:20.047Z,6.50
2018-07-21T05:53:48.531Z,6.30
2018-07-21T05:56:17.018Z,6.45
2018-07-21T05:58:45.534Z,6.10
2018-07-21T06:01:14.024Z,5.28
2018-07-21T06:03:42.480Z,6.10
2018-07-21T06:06:11.010Z,6.30
2018-07-21T06:08:39.535Z,6.15
2018-07-21T06:11:08.080Z,5.70
2018-07-21T06:13:36.557Z,6.37
2018-07-21T06:16:05.136Z,5.65
2018-07-21T06:18:33.694Z,5.75
2018-07-21T06:21:02.160Z,6.35
2018-07-21T06:23:30.614Z,5.80
2018-07-21T06:25:59.120Z,6.40
2018-07-21T06:28:27.607Z,6.33
2018-07-21T06:30:56.094Z,6.50
2018-07-21T06:33:24.564Z,6.47
2018-07-21T06:35:53.096Z,6.12
2018-07-21T06:38:21.550Z,6.87
2018-07-21T06:40:50.055Z,7.40
2018-07-21T06:43:20.785Z,7.22
2018-07-21T06:45:50.725Z,8.08
2018-07-21T06:48:19.952Z,6.95
2018-07-21T06:50:48.413Z,7.10
2018-07-21T06:53:17.394Z,7.20
2018-07-21T06:55:45.885Z,7.15
2018-07-21T06:58:14.773Z,7.47
2018-07-21T07:00:43.655Z,7.45
2018-07-21T07:03:12.736Z,7.35
2018-07-21T07:05:41.531Z,7.05
2018-07-21T07:08:10.394Z,7.33
2018-07-21T07:10:39.851Z,6.67
2018-07-21T07:13:08.908Z,7.35
2018-07-21T07:15:38.596Z,7.37
2018-07-21T07:18:07.209Z,6.85
2018-07-21T07:20:36.815Z,7.08
2018-07-21T07:23:05.322Z,7.35
2018-07-21T07:25:35.526Z,6.87
2018-07-21T07:28:05.044Z,8.38
2018-07-21T07:30:34.845Z,6.80
2018-07-21T07:33:04.547Z,7.70
2018-07-21T07:35:33.552Z,8.05
2018-07-21T07:38:02.018Z,7.62
2018-07-21T07:40:30.953Z,7.10
2018-07-21T07:43:00.415Z,7.70
2018-07-21T07:45:29.439Z,7.62
2018-07-21T07:47:58.811Z,8.18
2018-07-21T07:50:27.903Z,7.95
2018-07-21T07:52:57.070Z,7.78
2018-07-21T07:55:30.079Z,7.45
2018-07-21T07:57:58.531Z,8.43
2018-07-21T08:00:27.158Z,7.90
2018-07-21T08:02:58.938Z,8.03
2018-07-21T08:05:27.622Z,7.72
2018-07-21T08:07:56.559Z,7.25
2018-07-21T08:10:25.277Z,7.30
2018-07-21T08:12:53.824Z,7.60
2018-07-21T08:15:22.886Z,8.20
2018-07-21T08:17:51.665Z,7.55
2018-07-21T08:20:20.147Z,8.73
2018-07-21T08:22:48.709Z,14.78
2018-07-21T08:25:17.248Z,9.10
2018-07-21T08:27:45.725Z,9.13
2018-07-21T08:30:14.212Z,9.13
2018-07-21T08:32:42.739Z,9.18
2018-07-21T08:35:11.294Z,9.78
2018-07-21T08:37:39.872Z,9.98
2018-07-21T08:40:09.137Z,10.03
2018-07-21T08:42:37.661Z,10.25
2018-07-21T08:45:06.715Z,9.05
2018-07-21T08:47:35.250Z,9.33
2018-07-21T08:50:04.144Z,8.58
2018-07-21T08:52:32.624Z,8.85
2018-07-21T08:55:01.062Z,8.58
2018-07-21T08:57:29.538Z,9.10
2018-07-21T08:59:57.970Z,8.50
2018-07-21T09:02:26.463Z,9.83
2018-07-21T09:04:54.920Z,10.32
2018-07-21T09:07:23.464Z,10.32
2018-07-21T09:09:51.918Z,10.23
2018-07-21T09:12:20.425Z,9.78
2018-07-21T09:14:48.887Z,10.45
2018-07-21T09:17:20.055Z,8.50
2018-07-21T09:19:49.647Z,9.20
2018-07-21T09:22:18.247Z,8.65
2018-07-21T09:24:47.027Z,9.40
2018-07-21T09:27:15.776Z,9.90
2018-07-21T09:29:44.256Z,9.43
2018-07-21T09:32:13.195Z,9.70
2018-07-21T09:34:42.054Z,9.50
2018-07-21T09:37:10.860Z,11.57
2018-07-21T09:39:39.377Z,9.78
2018-07-21T09:42:08.187Z,10.65
2018-07-21T09:44:36.627Z,9.55
2018-07-21T09:47:05.498Z,9.78
2018-07-21T09:49:34.472Z,10.08
2018-07-21T09:52:02.939Z,11.90
2018-07-21T09:54:31.394Z,10.32
2018-07-21T09:56:59.885Z,11.15
2018-07-21T09:59:28.043Z,10.40
2018-07-21T10:01:56.499Z,11.12
2018-07-21T10:04:24.935Z,11.63
2018-07-21T10:06:53.415Z,11.75
2018-07-21T10:09:21.870Z,11.30
2018-07-21T10:11:50.418Z,11.43
2018-07-21T10:14:18.854Z,10.05
2018-07-21T10:16:47.299Z,10.55
2018-07-21T10:19:15.756Z,10.95
2018-07-21T10:21:44.255Z,10.50
2018-07-21T10:24:18.082Z,10.43
2018-07-21T10:26:51.915Z,11.48
2018-07-21T10:29:20.364Z,24.87
2018-07-21T10:31:48.828Z,28.07
2018-07-21T10:34:17.275Z,11.48
2018-07-21T10:36:45.710Z,11.40
2018-07-21T10:39:14.847Z,10.40
2018-07-21T10:41:43.456Z,10.72
2018-07-21T10:44:26.411Z,11.05
2018-07-21T10:46:54.883Z,10.68
2018-07-21T10:49:23.339Z,11.57
2018-07-21T10:51:51.833Z,10.85
2018-07-21T10:54:20.339Z,10.65
2018-07-21T10:56:48.782Z,11.80
2018-07-21T10:59:17.262Z,10.08
2018-07-21T11:01:45.701Z,9.88
2018-07-21T11:04:14.149Z,11.03
2018-07-21T11:06:42.594Z,10.38
2018-07-21T11:09:11.884Z,10.32
2018-07-21T11:11:40.442Z,12.18
2018-07-21T11:14:13.632Z,10.80
2018-07-21T11:16:42.629Z,11.20
2018-07-21T11:19:11.191Z,11.15
2018-07-21T11:21:39.655Z,11.80
2018-07-21T11:24:08.179Z,12.43
2018-07-21T11:26:36.648Z,11.33
2018-07-21T11:29:05.603Z,11.43
2018-07-21T11:31:34.076Z,11.68
2018-07-21T11:34:02.568Z,11.60
2018-07-21T11:36:31.067Z,11.20
2018-07-21T11:38:59.539Z,9.73
2018-07-21T11:41:27.978Z,9.75
2018-07-21T11:43:56.464Z,9.88
2018-07-21T11:46:24.919Z,10.25
2018-07-21T11:48:53.374Z,11.68
2018-07-21T11:51:21.814Z,11.03
2018-07-21T11:53:50.375Z,9.40
2018-07-21T11:56:18.851Z,9.35
2018-07-21T11:58:47.307Z,9.58
2018-07-21T12:01:15.766Z,9.70
2018-07-21T12:03:44.211Z,9.85
2018-07-21T12:06:12.656Z,9.38
2018-07-21T12:08:41.136Z,10.28
2018-07-21T12:11:09.983Z,9.50
2018-07-21T12:13:38.559Z,9.68
2018-07-21T12:16:07.006Z,9.53
2018-07-21T12:18:35.466Z,8.68
2018-07-21T12:21:04.470Z,8.93
2018-07-21T12:23:32.934Z,9.15
2018-07-21T12:26:01.363Z,8.60
2018-07-21T12:28:29.979Z,8.78
2018-07-21T12:30:58.694Z,9.05
2018-07-21T12:33:27.829Z,8.65
2018-07-21T12:35:56.808Z,7.92
2018-07-21T12:38:25.933Z,8.35
2018-07-21T12:40:54.654Z,8.60
2018-07-21T12:43:23.759Z,8.50
2018-07-21T12:45:52.528Z,8.10
2018-07-21T12:48:20.996Z,8.43
2018-07-21T12:50:49.581Z,7.62
2018-07-21T12:53:18.282Z,7.83
2018-07-21T12:55:47.322Z,7.95
2018-07-21T12:58:16.101Z,7.85
2018-07-21T13:00:44.837Z,7.33
2018-07-21T13:03:13.711Z,6.97
2018-07-21T13:05:42.237Z,7.53
2018-07-21T13:08:11.698Z,7.25
2018-07-21T13:10:40.166Z,7.97
2018-07-21T13:13:09.106Z,6.97
2018-07-21T13:15:38.170Z,6.90
2018-07-21T13:18:07.010Z,6.42
2018-07-21T13:20:35.823Z,7.03
2018-07-21T13:23:05.421Z,7.35
2018-07-21T13:25:34.670Z,7.42
2018-07-21T13:28:03.262Z,6.90
2018-07-21T13:30:31.818Z,6.60
2018-07-21T13:33:00.966Z,7.17
2018-07-21T13:35:29.827Z,7.08
2018-07-21T13:37:58.676Z,6.80
2018-07-21T13:40:27.579Z,6.85
2018-07-21T13:42:56.668Z,7.15
2018-07-21T13:45:26.395Z,6.95
2018-07-21T13:47:56.011Z,7.42
2018-07-21T13:50:25.523Z,8.10
2018-07-21T13:52:53.987Z,7.30
2018-07-21T13:55:22.666Z,7.12
2018-07-21T13:57:51.857Z,7.65
2018-07-21T14:00:21.270Z,6.80
2018-07-21T14:02:50.302Z,7.58
2018-07-21T14:05:18.994Z,8.08
2018-07-21T14:07:48.327Z,8.15
2018-07-21T14:10:18.827Z,8.13
2018-07-21T14:12:47.986Z,8.05
2018-07-21T14:15:17.412Z,7.50
2018-07-21T14:17:47.326Z,7.83
2018-07-21T14:20:18.309Z,7.92
2018-07-21T14:22:47.856Z,7.10
2018-07-21T14:25:17.195Z,7.92
2018-07-21T14:27:46.668Z,7.22
2018-07-21T14:30:15.152Z,6.87
2018-07-21T14:32:43.926Z,7.92
2018-07-21T14:35:12.394Z,7.28
2018-07-21T14:37:40.867Z,7.12
2018-07-21T14:40:09.357Z,7.25
2018-07-21T14:42:37.835Z,7.15
2018-07-21T14:45:06.335Z,6.53
2018-07-21T14:47:34.789Z,7.67
2018-07-21T14:50:03.268Z,6.62
2018-07-21T14:52:31.752Z,7.42
2018-07-21T14:55:00.238Z,6.60
2018-07-21T14:57:28.627Z,7.75
2018-07-21T14:59:57.308Z,7.42
2018-07-21T15:02:25.752Z,7.67
2018-07-21T15:04:54.206Z,7.05
2018-07-21T15:07:22.656Z,7.65
2018-07-21T15:09:51.101Z,7.00
2018-07-21T15:12:19.630Z,6.87
2018-07-21T15:14:48.082Z,7.05
2018-07-21T15:17:16.518Z,6.53
2018-07-21T15:19:44.976Z,6.80
2018-07-21T15:22:13.459Z,7.08
2018-07-21T15:24:41.886Z,5.90
2018-07-21T15:27:10.330Z,6.30
2018-07-21T15:29:38.767Z,7.17
2018-07-21T15:32:07.267Z,6.90
2018-07-21T15:34:35.717Z,7.30
2018-07-21T15:37:04.183Z,6.92
2018-07-21T15:39:32.704Z,6.90
2018-07-21T15:42:01.168Z,7.45
2018-07-21T15:44:29.599Z,6.83
2018-07-21T15:46:58.126Z,6.90
2018-07-21T15:49:26.550Z,6.60
2018-07-21T15:51:55.022Z,7.47
2018-07-21T15:54:23.479Z,7.22
2018-07-21T15:56:52.166Z,7.67
2018-07-21T15:59:20.995Z,6.87
2018-07-21T16:01:49.447Z,7.40
2018-07-21T16:04:17.908Z,7.42
2018-07-21T16:06:46.692Z,7.42
2018-07-21T16:09:15.143Z,7.65
2018-07-21T16:11:43.628Z,7.42
2018-07-21T16:14:12.057Z,7.17
2018-07-21T16:16:40.507Z,7.80
2018-07-21T16:19:08.935Z,7.75
2018-07-21T16:21:37.409Z,7.40
2018-07-21T16:24:05.854Z,8.00
2018-07-21T16:26:34.279Z,7.25
2018-07-21T16:29:02.779Z,9.53
2018-07-21T16:31:31.267Z,7.37
2018-07-21T16:33:59.729Z,7.55
2018-07-21T16:36:28.158Z,7.50
2018-07-21T16:38:56.612Z,6.90
2018-07-21T16:41:25.063Z,7.22
2018-07-21T16:43:53.515Z,6.95
2018-07-21T16:46:21.976Z,7.50
2018-07-21T16:48:50.411Z,7.30
2018-07-21T16:51:18.881Z,7.50
2018-07-21T16:53:47.327Z,8.13
2018-07-21T16:56:15.750Z,7.10
2018-07-21T16:58:44.363Z,8.20
2018-07-21T17:01:12.794Z,7.67
2018-07-21T17:03:41.246Z,8.08
2018-07-21T17:06:09.699Z,7.90
2018-07-21T17:08:38.163Z,7.20
2018-07-21T17:11:07.095Z,7.80
2018-07-21T17:13:35.527Z,6.58
2018-07-21T17:16:03.999Z,6.85
2018-07-21T17:18:33.903Z,7.47
2018-07-21T17:21:02.958Z,14.30
2018-07-21T17:23:31.969Z,23.15
2018-07-21T17:26:00.959Z,7.72
2018-07-21T17:28:29.393Z,7.08
2018-07-21T17:30:58.248Z,7.08
2018-07-21T17:33:27.345Z,7.33
2018-07-21T17:35:56.798Z,8.45
2018-07-21T17:38:25.243Z,7.30
2018-07-21T17:40:54.260Z,8.30
2018-07-21T17:43:23.743Z,7.92
2018-07-21T17:45:53.502Z,7.87
2018-07-21T17:48:22.667Z,8.50
2018-07-21T17:50:52.386Z,7.78
2018-07-21T17:53:21.672Z,8.15
2018-07-21T17:55:50.470Z,7.75
2018-07-21T17:58:20.190Z,8.53
2018-07-21T18:00:49.683Z,8.60
2018-07-21T18:03:19.215Z,8.98
2018-07-21T18:05:48.501Z,9.45
2018-07-21T18:08:17.163Z,10.38
2018-07-21T18:10:45.703Z,10.98
2018-07-21T18:13:15.748Z,9.73
2018-07-21T18:15:44.874Z,10.48
2018-07-21T18:18:14.012Z,11.85
2018-07-21T18:20:42.442Z,10.40
2018-07-21T18:23:10.931Z,11.45
2018-07-21T18:25:40.412Z,10.78
2018-07-21T18:28:08.895Z,11.97
2018-07-21T18:30:38.538Z,11.12
2018-07-21T18:33:07.037Z,9.88
2018-07-21T18:35:36.358Z,10.90
2018-07-21T18:38:05.902Z,11.83
2018-07-21T18:40:34.748Z,11.30
2018-07-21T18:43:03.212Z,11.22
2018-07-21T18:45:31.732Z,12.10
2018-07-21T18:48:00.212Z,11.38
2018-07-21T18:50:28.805Z,9.83
2018-07-21T18:52:57.247Z,11.25
2018-07-21T18:55:25.689Z,11.43
2018-07-21T18:57:54.119Z,9.63
2018-07-21T19:00:25.593Z,10.55
2018-07-21T19:02:54.262Z,10.20
2018-07-21T19:05:22.748Z,9.78
2018-07-21T19:07:51.383Z,10.48
2018-07-21T19:10:19.891Z,11.20
2018-07-21T19:12:50.202Z,10.50
2018-07-21T19:15:23.948Z,10.40
2018-07-21T19:17:52.488Z,11.40
2018-07-21T19:20:26.284Z,12.18
2018-07-21T19:22:55.058Z,11.30
2018-07-21T19:25:28.859Z,12.40
2018-07-21T19:27:57.368Z,11.35
2018-07-21T19:30:25.878Z,11.73
2018-07-21T19:32:58.980Z,12.45
2018-07-21T19:35:28.595Z,12.45
2018-07-21T19:37:57.055Z,12.18
2018-07-21T19:40:25.534Z,11.78
2018-07-21T19:42:54.058Z,12.45
2018-07-21T19:45:22.532Z,11.68
2018-07-21T19:47:51.070Z,11.70
2018-07-21T19:50:19.474Z,12.35
2018-07-21T19:52:47.932Z,12.73
2018-07-21T19:55:16.410Z,13.68
2018-07-21T19:57:44.858Z,13.75
2018-07-21T20:00:13.483Z,13.22
2018-07-21T20:02:41.932Z,13.58
2018-07-21T20:05:10.458Z,20.17
2018-07-21T20:07:38.937Z,13.65
2018-07-21T20:10:07.406Z,13.03
2018-07-21T20:12:35.874Z,15.13
2018-07-21T20:15:04.433Z,14.95
2018-07-21T20:17:32.930Z,16.15
2018-07-21T20:20:01.343Z,16.50
2018-07-21T20:22:29.807Z,16.32
2018-07-21T20:24:58.251Z,17.12
2018-07-21T20:27:26.703Z,16.20
2018-07-21T20:29:55.141Z,16.42
2018-07-21T20:32:23.646Z,17.12
2018-07-21T20:34:52.100Z,18.45
2018-07-21T20:37:20.592Z,18.50
2018-07-21T20:39:49.032Z,18.00
2018-07-21T20:42:17.502Z,19.57
2018-07-21T20:44:45.933Z,19.62
2018-07-21T20:47:14.543Z,18.95
2018-07-21T20:49:42.978Z,18.80
2018-07-21T20:52:13.227Z,19.75
2018-07-21T20:54:41.737Z,19.45
2018-07-21T20:57:10.534Z,18.60
2018-07-21T20:59:39.316Z,20.43
2018-07-21T21:02:07.827Z,19.42
2018-07-21T21:04:37.451Z,19.95
2018-07-21T21:07:06.243Z,19.87
2018-07-21T21:09:35.852Z,19.35
2018-07-21T21:12:04.660Z,21.68
2018-07-21T21:14:33.083Z,20.85
2018-07-21T21:17:01.595Z,22.20
2018-07-21T21:19:30.395Z,21.12
2018-07-21T21:21:59.262Z,21.85
2018-07-21T21:24:27.988Z,22.58
2018-07-21T21:26:56.803Z,23.12
2018-07-21T21:29:26.647Z,23.90
2018-07-21T21:31:55.507Z,23.55
2018-07-21T21:34:24.135Z,22.87
2018-07-21T21:36:53.161Z,23.18
2018-07-21T21:39:21.594Z,25.43
2018-07-21T21:41:50.091Z,24.52
2018-07-21T21:44:18.656Z,23.95
2018-07-21T21:46:47.292Z,27.67
2018-07-21T21:49:15.876Z,27.40
2018-07-21T21:51:44.150Z,26.75
2018-07-21T21:54:12.671Z,28.15
2018-07-21T21:56:41.219Z,27.25
2018-07-21T21:59:11.590Z,27.95
2018-07-21T22:01:40.415Z,27.67
2018-07-21T22:04:09.036Z,27.22
2018-07-21T22:06:37.508Z,26.80
2018-07-21T22:09:08.795Z,27.32
2018-07-21T22:11:37.411Z,29.55
2018-07-21T22:14:06.499Z,28.23
2018-07-21T22:16:34.991Z,31.15
2018-07-21T22:19:03.648Z,30.60
2018-07-21T22:21:32.203Z,31.73
2018-07-21T22:24:00.746Z,29.77
2018-07-21T22:26:29.174Z,30.95
2018-07-21T22:28:57.647Z,29.12
2018-07-21T22:31:26.123Z,28.07
2018-07-21T22:33:54.604Z,26.85
2018-07-21T22:36:23.042Z,28.17
2018-07-21T22:38:51.491Z,24.20
2018-07-21T22:41:19.939Z,24.50
2018-07-21T22:43:48.405Z,24.27
2018-07-21T22:46:16.859Z,24.40
2018-07-21T22:48:45.360Z,25.12
2018-07-21T22:51:13.782Z,26.97
2018-07-21T22:53:42.249Z,27.70
2018-07-21T22:56:10.663Z,27.52
2018-07-21T22:58:39.123Z,29.92
2018-07-21T23:01:07.650Z,26.82
2018-07-21T23:03:36.130Z,26.65
2018-07-21T23:06:04.583Z,27.70
2018-07-21T23:08:33.024Z,30.05
2018-07-21T23:11:01.474Z,29.90
2018-07-21T23:13:29.939Z,29.65
2018-07-21T23:15:58.362Z,29.35
2018-07-21T23:18:26.816Z,30.52
2018-07-21T23:20:55.272Z,31.90
2018-07-21T23:23:23.727Z,29.02
2018-07-21T23:25:52.187Z,30.75
2018-07-21T23:28:20.656Z,32.00
2018-07-21T23:30:49.130Z,33.75
2018-07-21T23:33:17.656Z,32.45
2018-07-21T23:35:46.095Z,30.52
2018-07-21T23:38:14.538Z,33.83
2018-07-21T23:40:43.363Z,34.90
2018-07-21T23:43:11.847Z,33.53
2018-07-21T23:45:40.335Z,33.13
2018-07-21T23:48:08.796Z,31.55
2018-07-21T23:50:37.244Z,33.05
2018-07-21T23:53:05.720Z,31.12
2018-07-21T23:55:34.170Z,33.13
2018-07-21T23:58:02.635Z,33.45
